sensor_id;sensor_type;location;lat;lon;timestamp;P1;durP1;ratioP1;P2;durP2;ratioP2
34920;SDS011;21128;50.016;20.002;2023-04-01T00:00:59;2.60;;;1.30;;
34920;SDS011;21128;50.016;20.002;2023-04-01T00:03:45;2.37;;;1.20;;
34920;SDS011;21128;50.016;20.002;2023-04-01T00:06:31;4.87;;;1.40;;
34920;SDS011;21128;50.016;20.002;2023-04-01T00:09:16;1.73;;;1.00;;
34920;SDS011;21128;50.016;20.002;2023-04-01T00:12:09;3.03;;;1.13;;
34920;SDS011;21128;50.016;20.002;2023-04-01T00:14:55;2.33;;;1.17;;
34920;SDS011;21128;50.016;20.002;2023-04-01T00:17:41;5.07;;;1.60;;
34920;SDS011;21128;50.016;20.002;2023-04-01T00:20:26;4.47;;;1.70;;
34920;SDS011;21128;50.016;20.002;2023-04-01T00:23:13;5.73;;;1.30;;
34920;SDS011;21128;50.016;20.002;2023-04-01T00:26:00;4.10;;;1.40;;
34920;SDS011;21128;50.016;20.002;2023-04-01T00:28:48;3.00;;;1.10;;
34920;SDS011;21128;50.016;20.002;2023-04-01T00:31:33;3.37;;;1.70;;
34920;SDS011;21128;50.016;20.002;2023-04-01T00:34:19;5.50;;;1.47;;
34920;SDS011;21128;50.016;20.002;2023-04-01T00:37:06;2.63;;;1.10;;
34920;SDS011;21128;50.016;20.002;2023-04-01T00:39:52;2.70;;;1.33;;
34920;SDS011;21128;50.016;20.002;2023-04-01T00:42:37;2.97;;;1.47;;
34920;SDS011;21128;50.016;20.002;2023-04-01T00:45:30;4.25;;;1.30;;
34920;SDS011;21128;50.016;20.002;2023-04-01T00:48:20;8.37;;;1.30;;
34920;SDS011;21128;50.016;20.002;2023-04-01T00:54:27;2.90;;;1.27;;
34920;SDS011;21128;50.016;20.002;2023-04-01T00:57:16;5.23;;;1.20;;
34920;SDS011;21128;50.016;20.002;2023-04-01T01:00:11;7.07;;;1.50;;
34920;SDS011;21128;50.016;20.002;2023-04-01T01:03:00;3.73;;;1.50;;
34920;SDS011;21128;50.016;20.002;2023-04-01T01:06:04;4.13;;;1.70;;
34920;SDS011;21128;50.016;20.002;2023-04-01T01:15:32;4.77;;;1.63;;
34920;SDS011;21128;50.016;20.002;2023-04-01T01:27:54;3.13;;;1.40;;
34920;SDS011;21128;50.016;20.002;2023-04-01T01:36:38;2.67;;;1.43;;
34920;SDS011;21128;50.016;20.002;2023-04-01T01:39:30;3.55;;;1.80;;
34920;SDS011;21128;50.016;20.002;2023-04-01T01:42:18;3.70;;;1.55;;
34920;SDS011;21128;50.016;20.002;2023-04-01T01:45:06;4.20;;;1.40;;
34920;SDS011;21128;50.016;20.002;2023-04-01T01:47:55;3.30;;;1.57;;
34920;SDS011;21128;50.016;20.002;2023-04-01T01:50:43;2.43;;;1.20;;
34920;SDS011;21128;50.016;20.002;2023-04-01T01:53:31;3.33;;;1.33;;
34920;SDS011;21128;50.016;20.002;2023-04-01T01:56:17;1.97;;;1.27;;
34920;SDS011;21128;50.016;20.002;2023-04-01T01:59:05;4.00;;;1.40;;
34920;SDS011;21128;50.016;20.002;2023-04-01T02:01:56;7.33;;;1.43;;
34920;SDS011;21128;50.016;20.002;2023-04-01T02:04:44;3.60;;;1.63;;
34920;SDS011;21128;50.016;20.002;2023-04-01T02:07:38;5.10;;;1.70;;
34920;SDS011;21128;50.016;20.002;2023-04-01T02:10:42;2.97;;;1.67;;
34920;SDS011;21128;50.016;20.002;2023-04-01T02:13:40;4.03;;;1.70;;
34920;SDS011;21128;50.016;20.002;2023-04-01T02:16:39;5.53;;;2.00;;
34920;SDS011;21128;50.016;20.002;2023-04-01T02:22:46;4.00;;;1.43;;
34920;SDS011;21128;50.016;20.002;2023-04-01T02:25:35;2.40;;;1.47;;
34920;SDS011;21128;50.016;20.002;2023-04-01T02:28:23;6.47;;;1.73;;
34920;SDS011;21128;50.016;20.002;2023-04-01T02:31:10;3.80;;;1.37;;
34920;SDS011;21128;50.016;20.002;2023-04-01T02:33:57;4.53;;;1.70;;
34920;SDS011;21128;50.016;20.002;2023-04-01T02:36:44;3.80;;;1.57;;
34920;SDS011;21128;50.016;20.002;2023-04-01T02:39:30;3.93;;;1.60;;
34920;SDS011;21128;50.016;20.002;2023-04-01T02:42:16;2.67;;;1.70;;
34920;SDS011;21128;50.016;20.002;2023-04-01T02:45:02;3.83;;;1.67;;
34920;SDS011;21128;50.016;20.002;2023-04-01T02:47:49;2.87;;;1.53;;
34920;SDS011;21128;50.016;20.002;2023-04-01T02:50:34;6.13;;;1.83;;
34920;SDS011;21128;50.016;20.002;2023-04-01T02:53:20;4.07;;;1.60;;
34920;SDS011;21128;50.016;20.002;2023-04-01T02:56:05;3.50;;;1.60;;
34920;SDS011;21128;50.016;20.002;2023-04-01T02:58:51;4.27;;;1.90;;
34920;SDS011;21128;50.016;20.002;2023-04-01T03:01:38;2.83;;;1.70;;
34920;SDS011;21128;50.016;20.002;2023-04-01T03:04:24;3.57;;;1.70;;
34920;SDS011;21128;50.016;20.002;2023-04-01T03:07:09;4.47;;;1.63;;
34920;SDS011;21128;50.016;20.002;2023-04-01T03:10:01;4.87;;;1.70;;
34920;SDS011;21128;50.016;20.002;2023-04-01T03:12:47;5.80;;;1.60;;
34920;SDS011;21128;50.016;20.002;2023-04-01T03:15:33;5.00;;;1.40;;
34920;SDS011;21128;50.016;20.002;2023-04-01T03:18:18;3.77;;;1.70;;
34920;SDS011;21128;50.016;20.002;2023-04-01T03:21:15;4.33;;;1.80;;
34920;SDS011;21128;50.016;20.002;2023-04-01T03:24:03;6.53;;;1.63;;
34920;SDS011;21128;50.016;20.002;2023-04-01T03:26:48;5.67;;;1.57;;
34920;SDS011;21128;50.016;20.002;2023-04-01T03:29:35;4.97;;;1.60;;
34920;SDS011;21128;50.016;20.002;2023-04-01T03:32:20;6.20;;;1.67;;
34920;SDS011;21128;50.016;20.002;2023-04-01T03:35:06;4.07;;;1.50;;
34920;SDS011;21128;50.016;20.002;2023-04-01T03:37:52;5.50;;;1.50;;
34920;SDS011;21128;50.016;20.002;2023-04-01T03:40:41;3.77;;;1.40;;
34920;SDS011;21128;50.016;20.002;2023-04-01T03:43:27;4.23;;;1.90;;
34920;SDS011;21128;50.016;20.002;2023-04-01T03:46:17;4.17;;;1.60;;
34920;SDS011;21128;50.016;20.002;2023-04-01T03:49:06;3.33;;;1.43;;
34920;SDS011;21128;50.016;20.002;2023-04-01T03:51:56;6.10;;;2.00;;
34920;SDS011;21128;50.016;20.002;2023-04-01T03:54:42;5.70;;;1.80;;
34920;SDS011;21128;50.016;20.002;2023-04-01T03:57:27;5.27;;;2.00;;
34920;SDS011;21128;50.016;20.002;2023-04-01T04:00:13;6.07;;;2.00;;
34920;SDS011;21128;50.016;20.002;2023-04-01T04:02:59;3.77;;;1.53;;
34920;SDS011;21128;50.016;20.002;2023-04-01T04:05:46;5.47;;;2.30;;
34920;SDS011;21128;50.016;20.002;2023-04-01T04:08:33;6.50;;;1.80;;
34920;SDS011;21128;50.016;20.002;2023-04-01T04:11:32;5.30;;;1.87;;
34920;SDS011;21128;50.016;20.002;2023-04-01T04:14:20;4.53;;;2.23;;
34920;SDS011;21128;50.016;20.002;2023-04-01T04:17:09;6.47;;;2.10;;
34920;SDS011;21128;50.016;20.002;2023-04-01T04:22:46;4.80;;;1.60;;
34920;SDS011;21128;50.016;20.002;2023-04-01T04:25:32;5.60;;;1.47;;
34920;SDS011;21128;50.016;20.002;2023-04-01T04:28:17;5.50;;;2.03;;
34920;SDS011;21128;50.016;20.002;2023-04-01T04:31:03;5.93;;;2.20;;
34920;SDS011;21128;50.016;20.002;2023-04-01T04:33:50;7.07;;;1.83;;
34920;SDS011;21128;50.016;20.002;2023-04-01T04:36:37;5.23;;;1.90;;
34920;SDS011;21128;50.016;20.002;2023-04-01T04:39:22;6.60;;;1.90;;
34920;SDS011;21128;50.016;20.002;2023-04-01T04:42:07;6.30;;;1.83;;
34920;SDS011;21128;50.016;20.002;2023-04-01T04:44:53;5.65;;;1.90;;
34920;SDS011;21128;50.016;20.002;2023-04-01T04:47:40;4.77;;;2.10;;
34920;SDS011;21128;50.016;20.002;2023-04-01T04:50:25;8.37;;;2.37;;
34920;SDS011;21128;50.016;20.002;2023-04-01T04:53:11;4.90;;;1.97;;
34920;SDS011;21128;50.016;20.002;2023-04-01T04:55:57;5.63;;;2.23;;
34920;SDS011;21128;50.016;20.002;2023-04-01T04:58:43;4.43;;;1.77;;
34920;SDS011;21128;50.016;20.002;2023-04-01T05:01:28;4.97;;;2.10;;
34920;SDS011;21128;50.016;20.002;2023-04-01T05:04:14;8.13;;;2.37;;
34920;SDS011;21128;50.016;20.002;2023-04-01T05:07:00;5.77;;;2.27;;
34920;SDS011;21128;50.016;20.002;2023-04-01T05:09:51;6.23;;;2.13;;
34920;SDS011;21128;50.016;20.002;2023-04-01T05:12:37;5.40;;;2.20;;
34920;SDS011;21128;50.016;20.002;2023-04-01T05:15:23;7.95;;;2.10;;
34920;SDS011;21128;50.016;20.002;2023-04-01T05:18:09;7.87;;;1.90;;
34920;SDS011;21128;50.016;20.002;2023-04-01T05:20:55;3.65;;;1.90;;
34920;SDS011;21128;50.016;20.002;2023-04-01T05:23:40;7.43;;;2.30;;
34920;SDS011;21128;50.016;20.002;2023-04-01T05:26:27;4.77;;;2.17;;
34920;SDS011;21128;50.016;20.002;2023-04-01T05:29:12;6.17;;;1.87;;
34920;SDS011;21128;50.016;20.002;2023-04-01T05:31:58;5.77;;;1.77;;
34920;SDS011;21128;50.016;20.002;2023-04-01T05:34:43;6.23;;;1.90;;
34920;SDS011;21128;50.016;20.002;2023-04-01T05:37:29;6.50;;;2.20;;
34920;SDS011;21128;50.016;20.002;2023-04-01T05:40:16;4.40;;;1.60;;
34920;SDS011;21128;50.016;20.002;2023-04-01T05:43:01;8.07;;;2.13;;
34920;SDS011;21128;50.016;20.002;2023-04-01T05:45:48;4.30;;;2.27;;
34920;SDS011;21128;50.016;20.002;2023-04-01T05:48:33;4.50;;;1.67;;
34920;SDS011;21128;50.016;20.002;2023-04-01T05:51:22;2.95;;;1.90;;
34920;SDS011;21128;50.016;20.002;2023-04-01T05:54:08;3.70;;;1.77;;
34920;SDS011;21128;50.016;20.002;2023-04-01T05:56:54;4.53;;;2.20;;
34920;SDS011;21128;50.016;20.002;2023-04-01T05:59:40;6.03;;;1.90;;
34920;SDS011;21128;50.016;20.002;2023-04-01T06:02:25;8.30;;;1.90;;
34920;SDS011;21128;50.016;20.002;2023-04-01T06:08:16;4.43;;;1.47;;
34920;SDS011;21128;50.016;20.002;2023-04-01T06:14:36;3.87;;;1.67;;
34920;SDS011;21128;50.016;20.002;2023-04-01T06:17:43;3.93;;;1.80;;
34920;SDS011;21128;50.016;20.002;2023-04-01T06:33:27;4.90;;;1.70;;
34920;SDS011;21128;50.016;20.002;2023-04-01T06:45:58;5.75;;;1.90;;
34920;SDS011;21128;50.016;20.002;2023-04-01T06:56:11;6.83;;;2.27;;
34920;SDS011;21128;50.016;20.002;2023-04-01T06:59:02;4.85;;;1.70;;
34920;SDS011;21128;50.016;20.002;2023-04-01T07:01:54;5.73;;;1.80;;
34920;SDS011;21128;50.016;20.002;2023-04-01T07:04:44;5.70;;;2.03;;
34920;SDS011;21128;50.016;20.002;2023-04-01T07:13:40;7.43;;;2.43;;
34920;SDS011;21128;50.016;20.002;2023-04-01T07:16:43;6.10;;;1.90;;
34920;SDS011;21128;50.016;20.002;2023-04-01T07:22:33;4.60;;;1.60;;
34920;SDS011;21128;50.016;20.002;2023-04-01T07:25:21;7.05;;;2.35;;
34920;SDS011;21128;50.016;20.002;2023-04-01T07:28:14;9.20;;;2.80;;
34920;SDS011;21128;50.016;20.002;2023-04-01T07:53:32;10.63;;;2.33;;
34920;SDS011;21128;50.016;20.002;2023-04-01T07:56:38;5.80;;;2.20;;
34920;SDS011;21128;50.016;20.002;2023-04-01T07:59:55;3.85;;;1.70;;
34920;SDS011;21128;50.016;20.002;2023-04-01T08:02:55;5.20;;;1.50;;
34920;SDS011;21128;50.016;20.002;2023-04-01T08:05:50;6.27;;;1.50;;
34920;SDS011;21128;50.016;20.002;2023-04-01T08:14:55;3.27;;;1.50;;
34920;SDS011;21128;50.016;20.002;2023-04-01T08:20:59;3.80;;;1.47;;
34920;SDS011;21128;50.016;20.002;2023-04-01T08:23:48;3.00;;;1.40;;
34920;SDS011;21128;50.016;20.002;2023-04-01T08:26:39;5.27;;;1.77;;
34920;SDS011;21128;50.016;20.002;2023-04-01T08:29:38;4.67;;;1.82;;
34920;SDS011;21128;50.016;20.002;2023-04-01T08:32:36;3.90;;;1.50;;
34920;SDS011;21128;50.016;20.002;2023-04-01T08:38:38;3.40;;;1.30;;
34920;SDS011;21128;50.016;20.002;2023-04-01T08:47:39;4.07;;;1.47;;
34920;SDS011;21128;50.016;20.002;2023-04-01T08:59:55;3.87;;;1.40;;
34920;SDS011;21128;50.016;20.002;2023-04-01T09:02:50;4.50;;;1.45;;
34920;SDS011;21128;50.016;20.002;2023-04-01T09:12:19;2.90;;;1.60;;
34920;SDS011;21128;50.016;20.002;2023-04-01T09:28:25;3.83;;;1.37;;
34920;SDS011;21128;50.016;20.002;2023-04-01T09:40:52;3.20;;;1.53;;
34920;SDS011;21128;50.016;20.002;2023-04-01T09:52:53;5.17;;;2.17;;
34920;SDS011;21128;50.016;20.002;2023-04-01T10:18:11;4.20;;;2.40;;
34920;SDS011;21128;50.016;20.002;2023-04-01T10:27:45;8.50;;;2.70;;
34920;SDS011;21128;50.016;20.002;2023-04-01T10:31:30;4.27;;;2.10;;
34920;SDS011;21128;50.016;20.002;2023-04-01T10:34:10;8.97;;;2.33;;
34920;SDS011;21128;50.016;20.002;2023-04-01T10:56:36;6.60;;;2.57;;
34920;SDS011;21128;50.016;20.002;2023-04-01T10:59:45;7.53;;;5.77;;
34920;SDS011;21128;50.016;20.002;2023-04-01T11:06:39;6.83;;;2.77;;
34920;SDS011;21128;50.016;20.002;2023-04-01T11:28:44;3.53;;;1.53;;
34920;SDS011;21128;50.016;20.002;2023-04-01T11:32:02;3.33;;;2.10;;
34920;SDS011;21128;50.016;20.002;2023-04-01T11:41:47;4.95;;;1.90;;
34920;SDS011;21128;50.016;20.002;2023-04-01T11:44:36;2.27;;;1.30;;
34920;SDS011;21128;50.016;20.002;2023-04-01T11:53:47;2.63;;;1.50;;
34920;SDS011;21128;50.016;20.002;2023-04-01T11:57:03;3.35;;;1.70;;
34920;SDS011;21128;50.016;20.002;2023-04-01T12:22:43;3.80;;;2.07;;
34920;SDS011;21128;50.016;20.002;2023-04-01T12:35:12;2.90;;;1.80;;
34920;SDS011;21128;50.016;20.002;2023-04-01T12:38:29;4.23;;;1.80;;
34920;SDS011;21128;50.016;20.002;2023-04-01T12:41:33;6.30;;;2.40;;
34920;SDS011;21128;50.016;20.002;2023-04-01T12:44:52;4.07;;;2.10;;
34920;SDS011;21128;50.016;20.002;2023-04-01T12:47:49;4.43;;;1.90;;
34920;SDS011;21128;50.016;20.002;2023-04-01T12:54:11;6.00;;;2.40;;
34920;SDS011;21128;50.016;20.002;2023-04-01T13:06:46;1.97;;;1.07;;
34920;SDS011;21128;50.016;20.002;2023-04-01T13:13:38;5.03;;;1.80;;
34920;SDS011;21128;50.016;20.002;2023-04-01T13:19:19;5.93;;;1.93;;
34920;SDS011;21128;50.016;20.002;2023-04-01T13:22:15;4.87;;;2.40;;
34920;SDS011;21128;50.016;20.002;2023-04-01T13:25:34;4.95;;;1.80;;
34920;SDS011;21128;50.016;20.002;2023-04-01T13:37:51;3.43;;;1.90;;
34920;SDS011;21128;50.016;20.002;2023-04-01T13:44:28;3.00;;;1.40;;
34920;SDS011;21128;50.016;20.002;2023-04-01T13:50:36;2.27;;;1.20;;
34920;SDS011;21128;50.016;20.002;2023-04-01T13:53:40;1.77;;;1.20;;
34920;SDS011;21128;50.016;20.002;2023-04-01T14:02:42;2.47;;;1.60;;
34920;SDS011;21128;50.016;20.002;2023-04-01T14:09:09;3.13;;;1.07;;
34920;SDS011;21128;50.016;20.002;2023-04-01T14:12:42;2.40;;;0.83;;
34920;SDS011;21128;50.016;20.002;2023-04-01T14:16:47;1.47;;;1.10;;
34920;SDS011;21128;50.016;20.002;2023-04-01T14:19:38;2.30;;;1.00;;
34920;SDS011;21128;50.016;20.002;2023-04-01T14:35:25;2.50;;;1.43;;
34920;SDS011;21128;50.016;20.002;2023-04-01T14:38:33;3.00;;;1.37;;
34920;SDS011;21128;50.016;20.002;2023-04-01T14:50:46;5.10;;;2.50;;
34920;SDS011;21128;50.016;20.002;2023-04-01T14:53:37;4.03;;;1.90;;
34920;SDS011;21128;50.016;20.002;2023-04-01T14:56:51;2.90;;;2.10;;
34920;SDS011;21128;50.016;20.002;2023-04-01T14:59:45;3.87;;;2.40;;
34920;SDS011;21128;50.016;20.002;2023-04-01T15:09:20;4.77;;;2.70;;
34920;SDS011;21128;50.016;20.002;2023-04-01T15:25:17;9.50;;;3.90;;
34920;SDS011;21128;50.016;20.002;2023-04-01T15:34:47;7.17;;;3.90;;
34920;SDS011;21128;50.016;20.002;2023-04-01T15:37:46;8.33;;;3.60;;
34920;SDS011;21128;50.016;20.002;2023-04-01T15:40:53;10.73;;;4.30;;
34920;SDS011;21128;50.016;20.002;2023-04-01T15:43:52;8.43;;;3.50;;
34920;SDS011;21128;50.016;20.002;2023-04-01T15:46:43;6.05;;;3.40;;
34920;SDS011;21128;50.016;20.002;2023-04-01T15:49:39;7.70;;;3.67;;
34920;SDS011;21128;50.016;20.002;2023-04-01T15:55:41;4.70;;;2.93;;
34920;SDS011;21128;50.016;20.002;2023-04-01T16:01:46;5.67;;;3.20;;
34920;SDS011;21128;50.016;20.002;2023-04-01T16:29:12;6.30;;;3.87;;
34920;SDS011;21128;50.016;20.002;2023-04-01T16:32:15;7.03;;;4.03;;
34920;SDS011;21128;50.016;20.002;2023-04-01T16:41:41;6.67;;;4.40;;
34920;SDS011;21128;50.016;20.002;2023-04-01T16:44:44;8.87;;;5.47;;
34920;SDS011;21128;50.016;20.002;2023-04-01T16:47:45;9.43;;;5.70;;
34920;SDS011;21128;50.016;20.002;2023-04-01T16:50:53;10.37;;;5.80;;
34920;SDS011;21128;50.016;20.002;2023-04-01T16:53:49;12.37;;;6.23;;
34920;SDS011;21128;50.016;20.002;2023-04-01T16:56:49;9.80;;;5.53;;
34920;SDS011;21128;50.016;20.002;2023-04-01T16:59:44;9.67;;;6.00;;
34920;SDS011;21128;50.016;20.002;2023-04-01T17:02:47;9.37;;;5.83;;
34920;SDS011;21128;50.016;20.002;2023-04-01T17:17:49;5.47;;;3.60;;
34920;SDS011;21128;50.016;20.002;2023-04-01T17:23:49;7.47;;;3.53;;
34920;SDS011;21128;50.016;20.002;2023-04-01T17:33:05;5.90;;;4.90;;
34920;SDS011;21128;50.016;20.002;2023-04-01T17:36:11;11.33;;;5.10;;
34920;SDS011;21128;50.016;20.002;2023-04-01T17:39:23;9.87;;;5.13;;
34920;SDS011;21128;50.016;20.002;2023-04-01T17:42:18;8.47;;;5.30;;
34920;SDS011;21128;50.016;20.002;2023-04-01T17:48:18;8.37;;;5.10;;
34920;SDS011;21128;50.016;20.002;2023-04-01T17:54:17;10.17;;;5.10;;
34920;SDS011;21128;50.016;20.002;2023-04-01T18:03:36;7.77;;;5.10;;
34920;SDS011;21128;50.016;20.002;2023-04-01T18:18:37;12.03;;;7.10;;
34920;SDS011;21128;50.016;20.002;2023-04-01T18:21:50;10.57;;;6.43;;
34920;SDS011;21128;50.016;20.002;2023-04-01T18:24:42;13.83;;;7.20;;
34920;SDS011;21128;50.016;20.002;2023-04-01T18:27:39;13.30;;;7.50;;
34920;SDS011;21128;50.016;20.002;2023-04-01T18:30:28;12.25;;;7.37;;
34920;SDS011;21128;50.016;20.002;2023-04-01T18:33:18;11.70;;;7.70;;
34920;SDS011;21128;50.016;20.002;2023-04-01T18:39:16;14.03;;;8.03;;
34920;SDS011;21128;50.016;20.002;2023-04-01T18:49:05;14.57;;;10.37;;
34920;SDS011;21128;50.016;20.002;2023-04-01T18:52:33;15.08;;;10.70;;
34920;SDS011;21128;50.016;20.002;2023-04-01T18:55:31;17.07;;;11.30;;
34920;SDS011;21128;50.016;20.002;2023-04-01T18:58:27;14.90;;;9.87;;
34920;SDS011;21128;50.016;20.002;2023-04-01T19:01:24;14.53;;;10.07;;
34920;SDS011;21128;50.016;20.002;2023-04-01T19:10:17;16.07;;;10.40;;
34920;SDS011;21128;50.016;20.002;2023-04-01T19:19:43;13.73;;;10.47;;
34920;SDS011;21128;50.016;20.002;2023-04-01T19:23:38;15.77;;;10.90;;
34920;SDS011;21128;50.016;20.002;2023-04-01T19:25:56;16.30;;;11.30;;
34920;SDS011;21128;50.016;20.002;2023-04-01T19:40:32;17.17;;;12.43;;
34920;SDS011;21128;50.016;20.002;2023-04-01T19:49:30;19.73;;;11.90;;
34920;SDS011;21128;50.016;20.002;2023-04-01T19:52:45;18.60;;;12.33;;
34920;SDS011;21128;50.016;20.002;2023-04-01T19:55:42;20.00;;;14.03;;
34920;SDS011;21128;50.016;20.002;2023-04-01T19:59:22;20.67;;;14.47;;
34920;SDS011;21128;50.016;20.002;2023-04-01T20:05:26;20.10;;;15.47;;
34920;SDS011;21128;50.016;20.002;2023-04-01T20:11:46;22.30;;;15.97;;
34920;SDS011;21128;50.016;20.002;2023-04-01T20:14:46;21.70;;;15.70;;
34920;SDS011;21128;50.016;20.002;2023-04-01T20:17:41;23.00;;;16.10;;
34920;SDS011;21128;50.016;20.002;2023-04-01T20:20:31;22.03;;;15.53;;
34920;SDS011;21128;50.016;20.002;2023-04-01T20:23:25;19.67;;;15.27;;
34920;SDS011;21128;50.016;20.002;2023-04-01T20:26:32;22.40;;;17.30;;
34920;SDS011;21128;50.016;20.002;2023-04-01T20:32:14;23.47;;;17.50;;
34920;SDS011;21128;50.016;20.002;2023-04-01T20:41:12;27.80;;;19.87;;
34920;SDS011;21128;50.016;20.002;2023-04-01T20:44:12;28.95;;;18.85;;
34920;SDS011;21128;50.016;20.002;2023-04-01T20:53:11;26.63;;;19.83;;
34920;SDS011;21128;50.016;20.002;2023-04-01T20:59:21;29.07;;;20.53;;
34920;SDS011;21128;50.016;20.002;2023-04-01T21:02:22;29.37;;;21.83;;
34920;SDS011;21128;50.016;20.002;2023-04-01T21:05:29;30.10;;;22.80;;
34920;SDS011;21128;50.016;20.002;2023-04-01T21:08:59;32.00;;;22.27;;
34920;SDS011;21128;50.016;20.002;2023-04-01T21:27:45;28.25;;;22.15;;
34920;SDS011;21128;50.016;20.002;2023-04-01T22:05:19;25.77;;;20.70;;
34920;SDS011;21128;50.016;20.002;2023-04-01T22:08:34;28.57;;;20.27;;
34920;SDS011;21128;50.016;20.002;2023-04-01T22:18:33;27.67;;;20.33;;
34920;SDS011;21128;50.016;20.002;2023-04-01T22:30:26;27.93;;;22.13;;
34920;SDS011;21128;50.016;20.002;2023-04-01T22:36:40;27.57;;;21.63;;
34920;SDS011;21128;50.016;20.002;2023-04-01T22:40:08;28.75;;;21.95;;
34920;SDS011;21128;50.016;20.002;2023-04-01T22:42:55;28.45;;;21.25;;
34920;SDS011;21128;50.016;20.002;2023-04-01T22:48:40;26.13;;;20.00;;
34920;SDS011;21128;50.016;20.002;2023-04-01T22:51:43;27.37;;;20.60;;
34920;SDS011;21128;50.016;20.002;2023-04-01T22:54:41;27.57;;;20.33;;
34920;SDS011;21128;50.016;20.002;2023-04-01T23:03:30;24.10;;;19.83;;
34920;SDS011;21128;50.016;20.002;2023-04-01T23:06:20;29.60;;;20.57;;
34920;SDS011;21128;50.016;20.002;2023-04-01T23:12:22;28.67;;;20.70;;
34920;SDS011;21128;50.016;20.002;2023-04-01T23:15:11;28.93;;;21.37;;
34920;SDS011;21128;50.016;20.002;2023-04-01T23:21:00;25.47;;;19.80;;
34920;SDS011;21128;50.016;20.002;2023-04-01T23:27:20;28.73;;;20.67;;
34920;SDS011;21128;50.016;20.002;2023-04-01T23:30:46;27.97;;;22.33;;
34920;SDS011;21128;50.016;20.002;2023-04-01T23:33:32;26.87;;;21.20;;
34920;SDS011;21128;50.016;20.002;2023-04-01T23:36:18;29.33;;;21.70;;
34920;SDS011;21128;50.016;20.002;2023-04-01T23:39:06;27.80;;;20.90;;
34920;SDS011;21128;50.016;20.002;2023-04-01T23:45:10;28.30;;;21.40;;
34920;SDS011;21128;50.016;20.002;2023-04-01T23:48:02;31.17;;;22.23;;
34920;SDS011;21128;50.016;20.002;2023-04-01T23:50:48;29.67;;;22.07;;
34920;SDS011;21128;50.016;20.002;2023-04-01T23:53:34;30.07;;;22.23;;
34920;SDS011;21128;50.016;20.002;2023-04-01T23:56:20;28.67;;;22.30;;
34920;SDS011;21128;50.016;20.002;2023-04-01T23:59:09;27.30;;;21.77;;
